Buoy 53593

sailwx.info

Track history (hours):
 
Tides and Currents Weather Stations Pressure Air Temp Water Temp Dewpoint Dewpoint Depression Visibility Wind Speed Wind Dir Waves Ship Positions

Drifting buoy 53593

Last reported at 2016-Aug-26 11:00 UTC. Time now 2016-Aug-26 13:41 UTC.
Position S 15°45' E 106°10'.

Barometer 1011.0 mb
Water temperature 26.2 ° C

Date/timePositionNaut miles runAvg speedWind from/ knotsBaromVisibWave heightAir tempDewpointWater temp
2016-Aug-26 11:00S 15°45' E 106°10'0 0.2 1011.0 26.2
2016-Aug-26 09:00S 15°45' E 106°11'0 0.0 1009.8 26.2
2016-Aug-26 07:00S 15°45' E 106°11'4 0.4 1009.3 26.2
2016-Aug-25 20:00S 15°41' E 106°11'0 0.0 1010.6 26.1
2016-Aug-25 18:00S 15°41' E 106°11'0 0.0 1011.4 26.1
2016-Aug-25 15:00S 15°41' E 106°11'3 0.5 1012.4 26.1
2016-Aug-25 10:00S 15°40' E 106°13'1 1.4 1010.6 26.1
2016-Aug-25 09:00S 15°39' E 106°15'0 0.0 1010.1 26.2
2016-Aug-25 07:00S 15°39' E 106°15'3 0.5 1010.3 26.1
2016-Aug-25 02:00S 15°38' E 106°17'5 0.6 1013.7 26.1
2016-Aug-24 18:00S 15°33' E 106°17'0 0.0 1011.5 26.1
2016-Aug-24 15:00S 15°33' E 106°17'1 0.3 1012.5 26.1
2016-Aug-24 11:00S 15°32' E 106°17'2 0.8 1011.1 26.1
2016-Aug-24 09:00S 15°31' E 106°19'0 0.0 1010.7 26.1
2016-Aug-24 07:00S 15°31' E 106°19'7 0.7 1010.8 26.1
2016-Aug-23 22:00S 15°29' E 106°25'1 0.7 1011.7 26.1
2016-Aug-23 21:00S 15°28' E 106°25'2 0.8 1011.7 26.1
2016-Aug-23 18:00S 15°27' E 106°27'4 0.7 1012.1 26.2
2016-Aug-23 12:00S 15°24' E 106°31'5 0.4 1012.0 26.2
2016-Aug-23 00:00S 15°21' E 106°34'0 0.5 1013.9 26.1
2016-Aug-22 23:00S 15°21' E 106°35'1 1.5 1013.5 26.1
2016-Aug-22 22:00S 15°20' E 106°34'0 0.0 1012.8 26.2
2016-Aug-22 21:00S 15°20' E 106°34'0 0.1 1013.0 26.2
2016-Aug-22 19:00S 15°20' E 106°34'9 1.0 1013.2 26.0
2016-Aug-22 10:00S 15°15' E 106°42'0 0.0 1013.3 26.1
2016-Aug-22 08:00S 15°15' E 106°42'5 2.3 1013.0 26.0
2016-Aug-22 06:00S 15°15' E 106°47'1 0.2 1013.4 25.9
2016-Aug-22 01:00S 15°15' E 106°48'1 0.5 1014.9 25.9
2016-Aug-21 23:00S 15°15' E 106°49'1 0.6 1014.2 26.0
2016-Aug-21 21:00S 15°14' E 106°51'0 0.0 1013.6 25.9
2016-Aug-21 20:00S 15°14' E 106°51'2 0.4 1013.5 25.9
2016-Aug-21 14:00S 15°15' E 106°53'1 0.1 1015.0 26.2
2016-Aug-21 10:00S 15°15' E 106°53'0 0.0 1013.4 25.9
2016-Aug-21 09:00S 15°15' E 106°53'5 0.5 1012.9 26.0
2016-Aug-20 23:00S 15°18' E 106°57'0 0.0 1013.8 25.9
2016-Aug-20 22:00S 15°18' E 106°57'1 0.3 1013.1 25.9
2016-Aug-20 19:00S 15°18' E 106°58'3 0.5 1013.8 25.9
2016-Aug-20 14:00S 15°19' E 107°00'3 0.8 1014.3 25.9
2016-Aug-20 10:00S 15°19' E 107°04'3 0.7 1012.6 26.0
2016-Aug-20 06:00S 15°19' E 107°07'3 0.5 1012.8 26.0
2016-Aug-20 00:00S 15°20' E 107°09'1 0.3 1014.6 25.9
2016-Aug-19 21:00S 15°19' E 107°10'3 1.0 1013.5 26.0
2016-Aug-19 18:00S 15°20' E 107°13'4 4.3 1014.2 26.0
2016-Aug-19 17:00S 15°21' E 107°18'6 1.0 1014.7 26.0
2016-Aug-19 11:00S 15°23' E 107°23'1 0.4 1013.7 26.1
2016-Aug-19 08:00S 15°23' E 107°25'1 0.6 1012.7 26.1
2016-Aug-19 06:00S 15°23' E 107°25'4 0.5 1013.6 26.0
2016-Aug-18 23:00S 15°26' E 107°29'1 0.9 1013.8 25.9
2016-Aug-18 22:00S 15°26' E 107°30'5 0.5 1013.4 25.9
2016-Aug-18 11:00S 15°24' E 107°34'1 0.4 1013.7 26.1
2016-Aug-18 09:00S 15°24' E 107°35'1 0.3 1013.2 25.9
2016-Aug-18 07:00S 15°24' E 107°36'5 4.5 1013.4 25.8
2016-Aug-18 06:00S 15°26' E 107°40'7 0.8 1014.4 25.8
2016-Aug-17 22:00S 15°31' E 107°45'2 0.5 1013.5 25.8
2016-Aug-17 18:00S 15°32' E 107°47'11 1.2 1013.9 25.8
2016-Aug-17 09:00S 15°42' E 107°52'1 0.7 1013.0 26.0
2016-Aug-17 07:00S 15°43' E 107°53'11 0.9 1013.2 26.1
2016-Aug-16 18:00S 15°54' E 107°55'7 1.0 1013.6 25.6
2016-Aug-16 11:00S 16°01' E 107°55'   1012.5 25.7
Track history (hours):
 
Tides and Currents Weather Stations Pressure Air Temp Water Temp Dewpoint Dewpoint Depression Visibility Wind Speed Wind Dir Waves Ship Positions

Drifting buoy 53593

Last reported at 2016-Aug-26 11:00 UTC. Time now 2016-Aug-26 13:41 UTC.
Position S 15°45' E 106°10'.

Barometer 1011.0 mb
Water temperature 26.2 ° C

Date/timePositionNaut miles runAvg speedWind from/ knotsBaromVisibWave heightAir tempDewpointWater temp
2016-Aug-26 11:00S 15°45' E 106°10'0 0.2 1011.0 26.2
2016-Aug-26 09:00S 15°45' E 106°11'0 0.0 1009.8 26.2
2016-Aug-26 07:00S 15°45' E 106°11'4 0.4 1009.3 26.2
2016-Aug-25 20:00S 15°41' E 106°11'0 0.0 1010.6 26.1
2016-Aug-25 18:00S 15°41' E 106°11'0 0.0 1011.4 26.1
2016-Aug-25 15:00S 15°41' E 106°11'3 0.5 1012.4 26.1
2016-Aug-25 10:00S 15°40' E 106°13'1 1.4 1010.6 26.1
2016-Aug-25 09:00S 15°39' E 106°15'0 0.0 1010.1 26.2
2016-Aug-25 07:00S 15°39' E 106°15'3 0.5 1010.3 26.1
2016-Aug-25 02:00S 15°38' E 106°17'5 0.6 1013.7 26.1
2016-Aug-24 18:00S 15°33' E 106°17'0 0.0 1011.5 26.1
2016-Aug-24 15:00S 15°33' E 106°17'1 0.3 1012.5 26.1
2016-Aug-24 11:00S 15°32' E 106°17'2 0.8 1011.1 26.1
2016-Aug-24 09:00S 15°31' E 106°19'0 0.0 1010.7 26.1
2016-Aug-24 07:00S 15°31' E 106°19'7 0.7 1010.8 26.1
2016-Aug-23 22:00S 15°29' E 106°25'1 0.7 1011.7 26.1
2016-Aug-23 21:00S 15°28' E 106°25'2 0.8 1011.7 26.1
2016-Aug-23 18:00S 15°27' E 106°27'4 0.7 1012.1 26.2
2016-Aug-23 12:00S 15°24' E 106°31'5 0.4 1012.0 26.2
2016-Aug-23 00:00S 15°21' E 106°34'0 0.5 1013.9 26.1
2016-Aug-22 23:00S 15°21' E 106°35'1 1.5 1013.5 26.1
2016-Aug-22 22:00S 15°20' E 106°34'0 0.0 1012.8 26.2
2016-Aug-22 21:00S 15°20' E 106°34'0 0.1 1013.0 26.2
2016-Aug-22 19:00S 15°20' E 106°34'9 1.0 1013.2 26.0
2016-Aug-22 10:00S 15°15' E 106°42'0 0.0 1013.3 26.1
2016-Aug-22 08:00S 15°15' E 106°42'5 2.3 1013.0 26.0
2016-Aug-22 06:00S 15°15' E 106°47'1 0.2 1013.4 25.9
2016-Aug-22 01:00S 15°15' E 106°48'1 0.5 1014.9 25.9
2016-Aug-21 23:00S 15°15' E 106°49'1 0.6 1014.2 26.0
2016-Aug-21 21:00S 15°14' E 106°51'0 0.0 1013.6 25.9
2016-Aug-21 20:00S 15°14' E 106°51'2 0.4 1013.5 25.9
2016-Aug-21 14:00S 15°15' E 106°53'1 0.1 1015.0 26.2
2016-Aug-21 10:00S 15°15' E 106°53'0 0.0 1013.4 25.9
2016-Aug-21 09:00S 15°15' E 106°53'5 0.5 1012.9 26.0
2016-Aug-20 23:00S 15°18' E 106°57'0 0.0 1013.8 25.9
2016-Aug-20 22:00S 15°18' E 106°57'1 0.3 1013.1 25.9
2016-Aug-20 19:00S 15°18' E 106°58'3 0.5 1013.8 25.9
2016-Aug-20 14:00S 15°19' E 107°00'3 0.8 1014.3 25.9
2016-Aug-20 10:00S 15°19' E 107°04'3 0.7 1012.6 26.0
2016-Aug-20 06:00S 15°19' E 107°07'3 0.5 1012.8 26.0
2016-Aug-20 00:00S 15°20' E 107°09'1 0.3 1014.6 25.9
2016-Aug-19 21:00S 15°19' E 107°10'3 1.0 1013.5 26.0
2016-Aug-19 18:00S 15°20' E 107°13'4 4.3 1014.2 26.0
2016-Aug-19 17:00S 15°21' E 107°18'6 1.0 1014.7 26.0
2016-Aug-19 11:00S 15°23' E 107°23'1 0.4 1013.7 26.1
2016-Aug-19 08:00S 15°23' E 107°25'1 0.6 1012.7 26.1
2016-Aug-19 06:00S 15°23' E 107°25'4 0.5 1013.6 26.0
2016-Aug-18 23:00S 15°26' E 107°29'1 0.9 1013.8 25.9
2016-Aug-18 22:00S 15°26' E 107°30'5 0.5 1013.4 25.9
2016-Aug-18 11:00S 15°24' E 107°34'1 0.4 1013.7 26.1
2016-Aug-18 09:00S 15°24' E 107°35'1 0.3 1013.2 25.9
2016-Aug-18 07:00S 15°24' E 107°36'5 4.5 1013.4 25.8
2016-Aug-18 06:00S 15°26' E 107°40'7 0.8 1014.4 25.8
2016-Aug-17 22:00S 15°31' E 107°45'2 0.5 1013.5 25.8
2016-Aug-17 18:00S 15°32' E 107°47'11 1.2 1013.9 25.8
2016-Aug-17 09:00S 15°42' E 107°52'1 0.7 1013.0 26.0
2016-Aug-17 07:00S 15°43' E 107°53'11 0.9 1013.2 26.1
2016-Aug-16 18:00S 15°54' E 107°55'7 1.0 1013.6 25.6
2016-Aug-16 11:00S 16°01' E 107°55'   1012.5 25.7

Dump ship's entire track history